Time;durP1;ratioP1;P1;durP2;ratioP2;P2;SDS_P1;SDS_P2;PMS_P1;PMS_P2;Temp;Humidity;BMP_temperature;BMP_pressure;BME280_temperature;BME280_humidity;BME280_pressure;Samples;Min_cycle;Max_cycle;Signal;HPM_P1;HPM_P2
2022/10/12 00:01:51;;;;;;;11.85;7.22;;;14.80;99.90;;;;;;7390691;19;20154;-79
2022/10/12 00:04:17;;;;;;;11.27;7.63;;;14.60;99.90;;;;;;7390814;19;20154;-79
2022/10/12 00:06:43;;;;;;;9.68;6.47;;;14.40;99.90;;;;;;7390553;19;20186;-79
2022/10/12 00:09:09;;;;;;;11.70;6.55;;;14.50;99.90;;;;;;7392198;19;20159;-78
2022/10/12 00:11:34;;;;;;;7.53;5.88;;;14.60;99.90;;;;;;7389583;19;20559;-78
2022/10/12 00:14:00;;;;;;;10.63;7.35;;;14.90;99.90;;;;;;7392222;19;20323;-78
2022/10/12 00:16:30;;;;;;;10.38;7.15;;;15.10;99.90;;;;;;7391877;19;20206;-77
2022/10/12 00:18:58;;;;;;;12.48;7.90;;;15.20;99.90;;;;;;7390497;19;20182;-77
2022/10/12 00:21:25;;;;;;;8.32;6.78;;;15.20;99.90;;;;;;7386902;19;20149;-78
2022/10/12 00:23:51;;;;;;;13.43;8.07;;;15.20;99.90;;;;;;7390435;19;20154;-77
2022/10/12 00:26:22;;;;;;;9.57;6.82;;;15.00;99.90;;;;;;7390018;19;20140;-79
2022/10/12 00:28:48;;;;;;;10.38;6.78;;;14.90;99.90;;;;;;7388393;19;20134;-79
2022/10/12 00:31:18;;;;;;;11.32;7.53;;;14.80;99.90;;;;;;7389920;19;20235;-79
2022/10/12 00:33:45;;;;;;;11.77;7.25;;;14.80;99.90;;;;;;7388836;19;20679;-79
2022/10/12 00:36:17;;;;;;;10.70;7.32;;;14.90;99.90;;;;;;7391466;19;20138;-77
2022/10/12 00:38:43;;;;;;;13.63;7.25;;;15.00;99.90;;;;;;7390517;19;20471;-78
2022/10/12 00:41:10;;;;;;;9.60;6.72;;;14.80;99.90;;;;;;7388843;19;20227;-79
2022/10/12 00:43:40;;;;;;;11.82;7.25;;;14.60;99.90;;;;;;7391811;19;20753;-79
2022/10/12 00:46:16;;;;;;;12.55;6.32;;;14.40;99.90;;;;;;7390481;19;20142;-79
2022/10/12 00:48:43;;;;;;;8.88;6.03;;;14.20;99.90;;;;;;7387782;19;20557;-79
2022/10/12 00:51:10;;;;;;;9.23;6.85;;;14.50;99.90;;;;;;7389653;19;20633;-79
2022/10/12 00:53:43;;;;;;;8.10;6.63;;;14.40;99.90;;;;;;7389228;19;20622;-79
2022/10/12 00:56:16;;;;;;;8.90;6.82;;;14.70;99.90;;;;;;7390035;19;20145;-78
2022/10/12 00:58:43;;;;;;;10.27;6.75;;;14.70;99.90;;;;;;7387301;19;20158;-79
2022/10/12 01:01:09;;;;;;;9.45;6.97;;;14.70;99.90;;;;;;7389973;19;20183;-77
2022/10/12 01:03:36;;;;;;;10.25;6.63;;;14.80;99.90;;;;;;7386728;19;20154;-76
2022/10/12 01:06:02;;;;;;;9.07;6.68;;;14.50;99.90;;;;;;7386924;19;20138;-78
2022/10/12 01:08:31;;;;;;;13.95;6.78;;;14.50;99.90;;;;;;7386123;19;20168;-77
2022/10/12 01:10:57;;;;;;;9.68;6.68;;;14.50;99.90;;;;;;7389319;19;20134;-78
2022/10/12 01:13:23;;;;;;;10.05;6.85;;;14.60;99.90;;;;;;7387653;19;20231;-79
2022/10/12 01:16:04;;;;;;;10.15;7.43;;;14.90;99.90;;;;;;7391056;19;20122;-78
2022/10/12 01:18:42;;;;;;;12.27;7.85;;;15.00;99.90;;;;;;7387272;19;20147;-80
2022/10/12 01:21:08;;;;;;;13.40;7.18;;;15.00;99.90;;;;;;7388691;19;20591;-80
2022/10/12 01:23:59;;;;;;;10.68;7.10;;;14.90;99.90;;;;;;7386305;19;20188;-79
2022/10/12 01:27:00;;;;;;;9.05;6.72;;;14.90;99.90;;;;;;7386116;19;20154;-77
2022/10/12 01:29:35;;;;;;;9.48;6.30;;;14.80;99.90;;;;;;7390105;19;20138;-78
2022/10/12 01:32:20;;;;;;;9.63;7.15;;;14.60;99.90;;;;;;7384483;19;20489;-79
2022/10/12 01:35:04;;;;;;;9.95;7.15;;;14.20;99.90;;;;;;7391156;19;20245;-78
2022/10/12 01:37:41;;;;;;;12.15;6.75;;;14.20;99.90;;;;;;7385396;19;20137;-76
2022/10/12 01:40:13;;;;;;;9.20;6.15;;;14.30;99.90;;;;;;7390510;19;20134;-78
2022/10/12 01:42:42;;;;;;;10.48;7.10;;;14.30;99.90;;;;;;7388436;19;20138;-77
2022/10/12 01:45:17;;;;;;;12.73;6.70;;;14.00;99.90;;;;;;7388477;19;20211;-78
2022/10/12 01:47:51;;;;;;;10.32;7.15;;;14.00;99.90;;;;;;7389019;19;20706;-78
2022/10/12 01:50:20;;;;;;;10.35;7.05;;;14.20;99.90;;;;;;7387535;19;20118;-79
2022/10/12 01:53:15;;;;;;;9.65;6.93;;;14.30;99.90;;;;;;7389385;19;20168;-79
2022/10/12 01:55:54;;;;;;;11.68;7.90;;;14.00;99.90;;;;;;7387836;19;20603;-79
2022/10/12 01:58:41;;;;;;;12.07;8.10;;;14.10;99.90;;;;;;7388630;19;20538;-77
2022/10/12 02:01:20;;;;;;;10.35;7.03;;;14.10;99.90;;;;;;7390391;19;20508;-80
2022/10/12 02:04:01;;;;;;;11.65;6.85;;;14.30;99.90;;;;;;7388825;19;20153;-79
2022/10/12 02:06:37;;;;;;;12.35;6.50;;;14.10;99.90;;;;;;7388279;19;20163;-79
2022/10/12 02:09:13;;;;;;;8.40;6.30;;;13.90;99.90;;;;;;7384569;19;20162;-78
2022/10/12 02:11:42;;;;;;;10.57;6.90;;;13.80;99.90;;;;;;7389547;19;20482;-79
2022/10/12 02:14:14;;;;;;;9.90;7.63;;;14.10;99.90;;;;;;7386741;19;20151;-79
2022/10/12 02:16:59;;;;;;;10.40;6.97;;;14.30;99.90;;;;;;7387884;19;20138;-80
2022/10/12 02:19:31;;;;;;;13.50;7.75;;;14.10;99.90;;;;;;7389067;19;20141;-79
2022/10/12 02:22:01;;;;;;;10.27;7.50;;;14.00;99.90;;;;;;7385683;19;20135;-80
2022/10/12 02:24:29;;;;;;;9.57;7.35;;;14.10;99.90;;;;;;7390506;19;20162;-79
2022/10/12 02:26:56;;;;;;;12.07;7.82;;;14.20;99.90;;;;;;7388739;19;20165;-79
2022/10/12 02:29:36;;;;;;;11.98;7.68;;;14.10;99.90;;;;;;7387580;19;20523;-80
2022/10/12 02:32:18;;;;;;;9.77;7.47;;;14.00;99.90;;;;;;7386050;19;20197;-80
2022/10/12 02:35:04;;;;;;;9.52;7.13;;;14.20;99.90;;;;;;7388286;19;20176;-79
2022/10/12 02:37:33;;;;;;;11.15;7.47;;;14.50;99.90;;;;;;7383092;19;20134;-78
2022/10/12 02:40:29;;;;;;;12.68;8.18;;;14.70;99.90;;;;;;7386048;19;20154;-72
2022/10/12 02:43:01;;;;;;;12.15;8.15;;;14.80;99.90;;;;;;7384039;19;20138;-74
2022/10/12 02:45:29;;;;;;;14.60;8.00;;;14.80;99.90;;;;;;7384909;19;20153;-73
2022/10/12 02:47:56;;;;;;;13.05;8.77;;;14.80;99.90;;;;;;7379075;19;20138;-75
2022/10/12 02:50:25;;;;;;;11.50;7.70;;;14.70;99.90;;;;;;7386458;19;20173;-73
2022/10/12 02:52:51;;;;;;;13.18;8.45;;;14.70;99.90;;;;;;7385560;19;20142;-72
2022/10/12 02:55:18;;;;;;;15.73;8.77;;;14.70;99.90;;;;;;7386472;19;20193;-72
2022/10/12 02:57:44;;;;;;;12.52;8.40;;;14.70;99.90;;;;;;7391110;19;20968;-74
2022/10/12 03:00:10;;;;;;;11.43;8.57;;;14.80;99.90;;;;;;7392799;19;20138;-74
2022/10/12 03:02:36;;;;;;;13.88;8.10;;;14.80;99.90;;;;;;7393253;19;20151;-74
2022/10/12 03:05:02;;;;;;;12.88;8.20;;;14.80;99.90;;;;;;7392752;19;20154;-73
2022/10/12 03:07:27;;;;;;;11.15;7.78;;;14.80;99.90;;;;;;7388066;19;20230;-72
2022/10/12 03:09:53;;;;;;;14.38;8.68;;;14.80;99.90;;;;;;7390634;19;20219;-73
2022/10/12 03:12:19;;;;;;;16.38;9.02;;;14.80;99.90;;;;;;7393293;19;20679;-73
2022/10/12 03:14:45;;;;;;;11.63;8.35;;;14.80;99.90;;;;;;7392822;19;20134;-74
2022/10/12 03:17:10;;;;;;;12.18;8.70;;;14.90;99.90;;;;;;7393567;19;20150;-73
2022/10/12 03:19:38;;;;;;;10.55;7.70;;;14.80;99.90;;;;;;7387800;19;20150;-72
2022/10/12 03:22:05;;;;;;;13.48;8.50;;;14.80;99.90;;;;;;7392301;19;20169;-72
2022/10/12 03:24:30;;;;;;;13.20;9.00;;;14.80;99.90;;;;;;7394132;19;20158;-72
2022/10/12 03:26:57;;;;;;;10.27;7.72;;;14.80;99.90;;;;;;7392584;19;20139;-73
2022/10/12 03:29:23;;;;;;;12.77;8.55;;;14.80;99.90;;;;;;7392251;19;20158;-73
2022/10/12 03:31:49;;;;;;;12.90;7.97;;;14.90;99.90;;;;;;7391038;19;20198;-73
2022/10/12 03:34:14;;;;;;;9.77;7.55;;;14.90;99.90;;;;;;7391714;19;20147;-74
2022/10/12 03:36:40;;;;;;;14.43;8.15;;;14.80;99.90;;;;;;7391446;19;20258;-73
2022/10/12 03:39:06;;;;;;;11.80;8.07;;;15.00;99.90;;;;;;7388668;19;20135;-74
2022/10/12 03:41:31;;;;;;;9.82;7.78;;;14.80;99.90;;;;;;7392132;19;20166;-73
2022/10/12 03:43:57;;;;;;;13.52;8.25;;;14.80;99.90;;;;;;7391897;19;20990;-73
2022/10/12 03:46:23;;;;;;;12.65;8.10;;;14.80;99.90;;;;;;7392594;19;20215;-73
2022/10/12 03:48:49;;;;;;;11.48;7.90;;;14.80;99.90;;;;;;7389806;19;20146;-73
2022/10/12 03:51:14;;;;;;;13.88;8.25;;;14.90;99.90;;;;;;7391272;19;20619;-74
2022/10/12 03:53:40;;;;;;;13.40;8.85;;;14.80;99.90;;;;;;7389877;19;20175;-74
2022/10/12 03:56:06;;;;;;;12.45;8.45;;;14.80;99.90;;;;;;7393105;19;20170;-73
2022/10/12 03:58:33;;;;;;;11.95;8.23;;;14.90;99.90;;;;;;7390544;19;20135;-74
2022/10/12 04:00:58;;;;;;;12.15;9.38;;;14.90;99.90;;;;;;7392868;19;20139;-72
2022/10/12 04:03:24;;;;;;;12.85;8.52;;;14.60;99.90;;;;;;7387978;19;20214;-72
2022/10/12 04:05:54;;;;;;;18.30;11.00;;;14.70;99.90;;;;;;7392257;19;20135;-74
2022/10/12 04:08:21;;;;;;;12.25;7.88;;;14.70;99.90;;;;;;7388899;19;20147;-74
2022/10/12 04:10:49;;;;;;;11.65;8.20;;;14.80;99.90;;;;;;7396344;19;20145;-73
2022/10/12 04:13:16;;;;;;;16.88;8.82;;;14.80;99.90;;;;;;7389700;19;20224;-74
2022/10/12 04:15:41;;;;;;;10.45;7.82;;;14.80;99.90;;;;;;7391341;19;20546;-74
2022/10/12 04:18:07;;;;;;;10.63;8.02;;;14.80;99.90;;;;;;7392093;19;20138;-74
2022/10/12 04:20:33;;;;;;;15.40;9.75;;;14.70;99.90;;;;;;7391059;19;20439;-73
2022/10/12 04:22:59;;;;;;;13.27;9.35;;;14.50;99.90;;;;;;7392088;19;20588;-73
2022/10/12 04:25:25;;;;;;;14.07;8.70;;;14.60;99.90;;;;;;7395721;19;20498;-74
2022/10/12 04:27:51;;;;;;;13.05;9.52;;;14.60;99.90;;;;;;7390128;19;20142;-74
2022/10/12 04:30:17;;;;;;;19.02;11.15;;;14.70;99.90;;;;;;7389148;19;20138;-75
2022/10/12 04:32:43;;;;;;;16.67;8.85;;;14.70;99.90;;;;;;7391605;19;20485;-74
2022/10/12 04:35:09;;;;;;;14.00;8.65;;;14.70;99.90;;;;;;7389552;19;20153;-73
2022/10/12 04:37:34;;;;;;;18.45;8.68;;;14.50;99.90;;;;;;7390225;19;20146;-74
2022/10/12 04:40:00;;;;;;;14.35;8.75;;;14.30;99.90;;;;;;7390989;19;20146;-74
2022/10/12 04:42:26;;;;;;;14.98;8.15;;;14.50;99.90;;;;;;7390550;19;20155;-74
2022/10/12 04:44:52;;;;;;;13.45;9.07;;;14.60;99.90;;;;;;7388207;19;20139;-74
2022/10/12 04:47:17;;;;;;;13.73;8.75;;;14.70;99.90;;;;;;7388296;19;20139;-72
2022/10/12 04:49:43;;;;;;;12.70;8.15;;;14.80;99.90;;;;;;7388455;19;20628;-73
2022/10/12 04:52:09;;;;;;;16.00;8.75;;;14.80;99.90;;;;;;7389998;19;20139;-74
2022/10/12 04:54:35;;;;;;;16.27;8.50;;;14.90;99.90;;;;;;7390623;19;20166;-73
2022/10/12 04:57:00;;;;;;;12.35;8.60;;;15.00;99.90;;;;;;7389293;19;20143;-73
2022/10/12 04:59:26;;;;;;;12.55;8.82;;;15.00;99.90;;;;;;7389378;19;20150;-74
2022/10/12 05:01:53;;;;;;;12.90;8.55;;;14.90;99.90;;;;;;7390411;19;20142;-74
2022/10/12 05:04:19;;;;;;;15.10;9.25;;;15.10;99.90;;;;;;7388968;19;20154;-74
2022/10/12 05:06:45;;;;;;;15.35;8.60;;;15.00;99.90;;;;;;7387974;19;20178;-74
2022/10/12 05:09:10;;;;;;;11.38;8.27;;;14.70;99.90;;;;;;7387012;19;20661;-73
2022/10/12 05:11:36;;;;;;;14.90;9.63;;;14.80;99.90;;;;;;7389255;19;20465;-73
2022/10/12 05:14:02;;;;;;;15.40;9.27;;;14.90;99.90;;;;;;7392126;19;20149;-73
2022/10/12 05:16:28;;;;;;;12.18;8.60;;;14.70;99.90;;;;;;7390608;19;20138;-73
2022/10/12 05:18:53;;;;;;;13.75;9.25;;;14.80;99.90;;;;;;7389302;19;20139;-74
2022/10/12 05:21:19;;;;;;;12.73;8.63;;;14.80;99.90;;;;;;7386148;19;20196;-75
2022/10/12 05:23:53;;;;;;;12.88;9.20;;;14.80;99.90;;;;;;7387630;19;20166;-72
2022/10/12 05:26:19;;;;;;;14.23;9.20;;;14.90;99.90;;;;;;7390178;19;20149;-74
2022/10/12 05:28:45;;;;;;;14.77;9.32;;;14.80;99.90;;;;;;7387410;19;20162;-74
2022/10/12 05:31:10;;;;;;;17.00;10.82;;;14.90;99.90;;;;;;7386119;19;20218;-74
2022/10/12 05:33:36;;;;;;;12.43;8.27;;;15.00;99.90;;;;;;7388064;19;20157;-74
2022/10/12 05:36:03;;;;;;;18.08;9.23;;;15.00;99.90;;;;;;7387529;19;20715;-73
2022/10/12 05:38:29;;;;;;;16.10;9.82;;;15.00;99.90;;;;;;7386374;19;20139;-72
2022/10/12 05:40:54;;;;;;;14.70;10.05;;;15.00;99.90;;;;;;7387818;19;20491;-73
2022/10/12 05:43:20;;;;;;;16.25;10.00;;;15.00;99.90;;;;;;7388803;19;20466;-73
2022/10/12 05:45:46;;;;;;;16.00;9.45;;;14.80;99.90;;;;;;7381754;19;20266;-75
2022/10/12 05:48:11;;;;;;;14.00;9.55;;;15.00;99.90;;;;;;7382523;19;20162;-74
2022/10/12 05:50:37;;;;;;;13.35;9.23;;;15.00;99.90;;;;;;7385314;19;20150;-74
2022/10/12 05:53:04;;;;;;;13.82;9.55;;;15.30;99.90;;;;;;7383045;19;21247;-74
2022/10/12 05:55:30;;;;;;;16.85;10.75;;;14.90;99.90;;;;;;7388278;19;20142;-74
2022/10/12 05:57:55;;;;;;;13.70;9.23;;;14.90;99.90;;;;;;7384186;19;20620;-73
2022/10/12 06:00:21;;;;;;;13.95;9.20;;;15.10;99.90;;;;;;7385775;19;20611;-72
2022/10/12 06:02:47;;;;;;;14.60;9.82;;;15.00;99.90;;;;;;7387700;19;20170;-73
2022/10/12 06:05:14;;;;;;;14.13;9.50;;;14.70;99.90;;;;;;7388855;19;20149;-73
2022/10/12 06:07:39;;;;;;;17.00;10.00;;;14.80;99.90;;;;;;7383857;19;20174;-73
2022/10/12 06:10:06;;;;;;;13.05;9.63;;;14.90;99.90;;;;;;7386420;19;20137;-72
2022/10/12 06:12:32;;;;;;;18.27;9.48;;;14.60;99.90;;;;;;7386174;19;20143;-74
2022/10/12 06:14:58;;;;;;;14.60;9.98;;;14.70;99.90;;;;;;7389103;19;20127;-73
2022/10/12 06:17:23;;;;;;;15.98;10.48;;;15.00;99.90;;;;;;7388021;19;20131;-74
2022/10/12 06:19:49;;;;;;;18.52;10.20;;;15.00;99.90;;;;;;7386988;19;20145;-72
2022/10/12 06:22:15;;;;;;;15.88;9.95;;;15.10;99.90;;;;;;7385085;19;20156;-74
2022/10/12 06:24:41;;;;;;;16.27;9.98;;;15.20;99.90;;;;;;7387702;19;20618;-75
2022/10/12 06:27:07;;;;;;;16.13;9.90;;;15.10;99.90;;;;;;7386737;19;20134;-74
2022/10/12 06:29:34;;;;;;;16.67;11.48;;;15.20;99.90;;;;;;7387906;19;20138;-75
2022/10/12 06:32:00;;;;;;;21.50;11.50;;;15.30;99.90;;;;;;7389935;19;20138;-74
2022/10/12 06:34:26;;;;;;;16.88;10.95;;;15.20;99.90;;;;;;7397965;19;20130;-75
2022/10/12 06:36:52;;;;;;;19.63;12.10;;;15.30;99.90;;;;;;7403791;19;20154;-74
2022/10/12 06:39:18;;;;;;;20.77;12.07;;;14.90;99.90;;;;;;7402105;19;20592;-74
2022/10/12 06:41:45;;;;;;;17.08;10.77;;;15.10;99.90;;;;;;7401377;19;20162;-74
2022/10/12 06:44:11;;;;;;;21.17;11.77;;;15.20;99.90;;;;;;7399914;19;20174;-75
2022/10/12 06:46:36;;;;;;;25.45;10.85;;;15.30;99.90;;;;;;7397658;19;20600;-76
2022/10/12 06:49:02;;;;;;;22.83;10.90;;;15.20;99.90;;;;;;7394230;19;20173;-74
2022/10/12 06:51:28;;;;;;;16.80;11.02;;;15.30;99.90;;;;;;7404007;19;20135;-75
2022/10/12 06:53:54;;;;;;;20.27;11.25;;;15.30;99.90;;;;;;7398028;19;20748;-74
2022/10/12 06:56:21;;;;;;;12.85;8.57;;;15.30;99.90;;;;;;7401981;19;20620;-75
2022/10/12 06:58:47;;;;;;;14.48;9.20;;;15.40;99.90;;;;;;7397786;19;20134;-74
2022/10/12 07:01:12;;;;;;;12.65;9.05;;;15.50;99.90;;;;;;7397115;19;21236;-74
2022/10/12 07:03:38;;;;;;;15.80;9.48;;;15.40;99.90;;;;;;7399957;19;20143;-73
2022/10/12 07:06:06;;;;;;;15.70;9.05;;;15.50;99.90;;;;;;7400472;19;20143;-75
2022/10/12 07:08:32;;;;;;;16.55;9.63;;;15.40;99.90;;;;;;7401466;19;20476;-74
2022/10/12 07:11:03;;;;;;;18.83;9.82;;;15.40;99.90;;;;;;7403747;19;20142;-74
2022/10/12 07:13:28;;;;;;;15.20;9.15;;;15.40;99.90;;;;;;7403922;19;20126;-73
2022/10/12 07:15:54;;;;;;;24.58;11.10;;;15.30;99.90;;;;;;7402980;19;20142;-74
2022/10/12 07:18:20;;;;;;;15.02;9.35;;;15.20;99.90;;;;;;7403003;19;20565;-74
2022/10/12 07:20:46;;;;;;;16.75;9.98;;;15.30;99.90;;;;;;7403088;19;20211;-73
2022/10/12 07:23:12;;;;;;;17.15;10.02;;;15.40;99.90;;;;;;7403659;19;20145;-74
2022/10/12 07:25:38;;;;;;;15.75;10.68;;;15.40;99.90;;;;;;7403852;19;20607;-74
2022/10/12 07:28:05;;;;;;;19.98;10.73;;;15.40;99.90;;;;;;7400278;19;20201;-75
2022/10/12 07:30:34;;;;;;;14.40;10.02;;;15.30;99.90;;;;;;7403780;19;20142;-73
2022/10/12 07:33:00;;;;;;;14.43;10.10;;;15.50;99.90;;;;;;7398734;19;20214;-73
2022/10/12 07:35:26;;;;;;;20.33;10.50;;;15.30;99.90;;;;;;7397697;19;20139;-74
2022/10/12 07:37:51;;;;;;;16.67;11.27;;;15.30;99.90;;;;;;7391550;19;20162;-75
2022/10/12 07:40:17;;;;;;;20.30;11.13;;;15.40;99.90;;;;;;7397947;19;20583;-74
2022/10/12 07:42:43;;;;;;;17.70;11.50;;;15.30;99.90;;;;;;7396109;19;20138;-73
2022/10/12 07:45:09;;;;;;;18.60;10.82;;;15.50;99.90;;;;;;7388296;19;20180;-75
2022/10/12 07:47:34;;;;;;;18.37;11.60;;;15.30;99.90;;;;;;7389067;19;20150;-76
2022/10/12 07:50:00;;;;;;;19.42;13.00;;;15.40;99.90;;;;;;7392228;19;20134;-75
2022/10/12 07:52:27;;;;;;;18.47;12.30;;;15.40;99.90;;;;;;7391738;19;20142;-75
2022/10/12 07:54:53;;;;;;;19.55;11.55;;;15.50;99.90;;;;;;7391315;19;20130;-75
2022/10/12 07:57:18;;;;;;;17.42;12.15;;;15.40;99.90;;;;;;7393179;19;20178;-74
2022/10/12 07:59:45;;;;;;;22.08;12.68;;;15.40;99.90;;;;;;7390347;19;20141;-74
2022/10/12 08:02:11;;;;;;;22.88;13.07;;;15.50;99.90;;;;;;7389325;19;20607;-75
2022/10/12 08:04:38;;;;;;;21.83;11.70;;;15.60;99.90;;;;;;7391374;19;20167;-74
2022/10/12 08:07:03;;;;;;;18.52;12.32;;;15.60;99.90;;;;;;7392613;19;20699;-75
2022/10/12 08:09:29;;;;;;;16.85;11.98;;;15.70;99.90;;;;;;7390858;19;20142;-74
2022/10/12 08:11:55;;;;;;;26.38;14.63;;;15.70;99.90;;;;;;7391457;19;20146;-75
2022/10/12 08:14:31;;;;;;;19.70;12.50;;;15.70;99.90;;;;;;7390413;19;20157;-74
2022/10/12 08:17:16;;;;;;;19.58;12.82;;;15.90;99.90;;;;;;7390929;19;20138;-74
2022/10/12 08:20:05;;;;;;;19.90;12.80;;;15.90;99.90;;;;;;7390508;19;20154;-74
2022/10/12 08:22:51;;;;;;;16.85;12.48;;;15.90;99.90;;;;;;7393237;19;20142;-74
2022/10/12 08:25:17;;;;;;;21.75;13.23;;;15.90;99.90;;;;;;7392743;19;20552;-72
2022/10/12 08:27:42;;;;;;;20.08;13.15;;;15.90;99.90;;;;;;7390390;19;20167;-73
2022/10/12 08:30:09;;;;;;;21.50;13.45;;;15.80;99.90;;;;;;7390537;19;20167;-72
2022/10/12 08:32:54;;;;;;;20.83;13.23;;;16.00;99.90;;;;;;7390924;19;20158;-75
2022/10/12 08:35:21;;;;;;;17.88;12.13;;;16.00;99.90;;;;;;7391560;19;20207;-73
2022/10/12 08:37:46;;;;;;;17.80;12.65;;;15.90;99.90;;;;;;7390391;19;20221;-73
2022/10/12 08:40:19;;;;;;;21.40;13.38;;;16.00;99.90;;;;;;7390637;19;20155;-75
2022/10/12 08:43:23;;;;;;;20.13;11.93;;;16.20;99.90;;;;;;7388209;19;20170;-74
2022/10/12 08:45:59;;;;;;;23.58;12.75;;;16.20;99.90;;;;;;7390784;19;20138;-74
2022/10/12 08:48:55;;;;;;;21.75;13.27;;;16.20;99.90;;;;;;7390063;19;20150;-76
2022/10/12 08:51:25;;;;;;;21.42;13.82;;;16.30;99.90;;;;;;7392871;19;20188;-73
2022/10/12 08:54:07;;;;;;;20.25;13.23;;;16.40;99.90;;;;;;7392775;19;20155;-73
2022/10/12 08:56:34;;;;;;;20.33;11.98;;;16.40;99.90;;;;;;7388915;19;20161;-74
2022/10/12 08:59:01;;;;;;;17.35;12.60;;;16.40;99.90;;;;;;7388132;19;20126;-74
2022/10/12 09:01:27;;;;;;;24.15;13.73;;;16.40;99.90;;;;;;7389015;19;20142;-73
2022/10/12 09:04:11;;;;;;;24.67;15.00;;;16.40;99.90;;;;;;7387519;19;20170;-73
2022/10/12 09:06:55;;;;;;;19.90;12.50;;;16.40;99.90;;;;;;7387911;19;20545;-74
2022/10/12 09:09:56;;;;;;;20.33;12.57;;;16.40;99.90;;;;;;7384456;19;20150;-73
2022/10/12 09:12:30;;;;;;;18.77;13.48;;;16.50;99.90;;;;;;7385973;19;20150;-73
2022/10/12 09:15:01;;;;;;;21.05;14.02;;;16.60;99.90;;;;;;7390678;19;20500;-73
2022/10/12 09:17:40;;;;;;;18.50;11.52;;;16.50;99.90;;;;;;7390306;19;20155;-73
2022/10/12 09:20:21;;;;;;;19.50;13.10;;;16.40;99.90;;;;;;7391328;19;20140;-74
2022/10/12 09:22:55;;;;;;;21.83;13.02;;;16.40;99.90;;;;;;7387997;19;20489;-75
2022/10/12 09:25:25;;;;;;;21.23;13.95;;;16.50;99.90;;;;;;7388213;19;20149;-75
2022/10/12 09:27:51;;;;;;;19.25;12.80;;;16.30;99.90;;;;;;7389265;19;20158;-74
2022/10/12 09:30:18;;;;;;;17.52;12.02;;;16.30;99.90;;;;;;7387313;19;20150;-74
2022/10/12 09:33:02;;;;;;;15.73;10.20;;;16.50;99.90;;;;;;7388026;19;20138;-74
2022/10/12 09:35:28;;;;;;;14.13;9.98;;;16.40;99.90;;;;;;7388174;19;20130;-73
2022/10/12 09:37:54;;;;;;;14.25;9.43;;;16.50;99.90;;;;;;7388082;19;20269;-73
2022/10/12 09:40:30;;;;;;;15.02;9.75;;;16.50;99.90;;;;;;7387857;19;20138;-75
2022/10/12 09:43:01;;;;;;;20.52;9.35;;;16.50;99.90;;;;;;7387786;19;20138;-74
2022/10/12 09:45:31;;;;;;;16.23;9.23;;;16.50;99.90;;;;;;7389153;19;20146;-75
2022/10/12 09:48:21;;;;;;;17.58;9.43;;;16.50;99.90;;;;;;7386019;19;20675;-74
2022/10/12 09:51:00;;;;;;;14.48;8.95;;;16.50;99.90;;;;;;7382825;19;20164;-75
2022/10/12 09:53:39;;;;;;;13.85;8.57;;;16.50;99.90;;;;;;7387922;19;20138;-74
2022/10/12 09:56:29;;;;;;;14.07;8.35;;;16.40;99.90;;;;;;7383949;19;20158;-73
2022/10/12 09:59:01;;;;;;;13.43;7.90;;;16.30;99.90;;;;;;7386358;19;20492;-74
2022/10/12 10:01:28;;;;;;;16.55;9.48;;;16.50;99.90;;;;;;7386230;19;20138;-75
2022/10/12 10:04:23;;;;;;;13.63;9.88;;;16.70;99.90;;;;;;7388314;19;20158;-74
2022/10/12 10:06:49;;;;;;;12.02;8.35;;;16.70;99.90;;;;;;7383977;19;20620;-75
2022/10/12 10:09:29;;;;;;;13.23;8.38;;;16.60;99.90;;;;;;7381467;19;20138;-73
2022/10/12 10:11:56;;;;;;;11.60;7.72;;;16.60;99.90;;;;;;7386564;19;20138;-75
2022/10/12 10:14:22;;;;;;;14.77;7.88;;;16.70;99.90;;;;;;7387732;19;20155;-74
2022/10/12 10:16:50;;;;;;;10.73;7.47;;;16.90;99.90;;;;;;7386090;19;20135;-74
2022/10/12 10:19:18;;;;;;;12.77;8.70;;;16.90;99.90;;;;;;7386431;19;20218;-75
2022/10/12 10:21:45;;;;;;;15.45;8.70;;;16.90;99.90;;;;;;7388245;19;20567;-74
2022/10/12 10:24:24;;;;;;;13.10;8.43;;;16.90;99.90;;;;;;7386899;19;20743;-73
2022/10/12 10:27:03;;;;;;;12.02;7.28;;;16.90;99.90;;;;;;7384870;19;20592;-75
2022/10/12 10:29:40;;;;;;;12.63;8.27;;;17.00;99.90;;;;;;7386085;19;20492;-75
2022/10/12 10:32:12;;;;;;;11.82;8.25;;;16.90;99.90;;;;;;7383034;19;20182;-74
2022/10/12 10:34:40;;;;;;;10.30;8.10;;;17.00;99.90;;;;;;7387863;19;20134;-73
2022/10/12 10:37:13;;;;;;;12.60;7.93;;;16.90;99.90;;;;;;7384905;19;20135;-75
2022/10/12 10:39:48;;;;;;;13.27;7.32;;;17.00;99.90;;;;;;7383892;19;20512;-76
2022/10/12 10:42:23;;;;;;;10.30;7.20;;;17.00;99.90;;;;;;7384308;19;20194;-77
2022/10/12 10:44:51;;;;;;;14.93;8.60;;;17.00;99.90;;;;;;7384305;19;20265;-74
2022/10/12 10:47:18;;;;;;;12.07;8.07;;;17.00;99.90;;;;;;7383130;19;20238;-75
2022/10/12 10:49:56;;;;;;;13.55;7.82;;;17.00;99.90;;;;;;7385530;19;20123;-75
2022/10/12 10:52:35;;;;;;;10.25;7.90;;;17.10;99.90;;;;;;7382776;19;20592;-75
2022/10/12 10:55:15;;;;;;;12.52;7.03;;;17.10;99.90;;;;;;7383360;19;20587;-74
2022/10/12 10:58:03;;;;;;;9.75;7.10;;;17.20;99.90;;;;;;7381963;19;20130;-75
2022/10/12 11:00:32;;;;;;;11.18;6.78;;;17.20;99.90;;;;;;7383993;19;20150;-74
2022/10/12 11:03:10;;;;;;;10.60;6.95;;;17.20;99.90;;;;;;7383140;19;20624;-74
2022/10/12 11:05:42;;;;;;;11.40;6.30;;;17.10;99.90;;;;;;7382881;19;20135;-76
2022/10/12 11:08:22;;;;;;;10.30;6.88;;;17.30;99.90;;;;;;7371626;19;20172;-73
2022/10/12 11:10:57;;;;;;;15.60;9.13;;;17.40;99.90;;;;;;7378117;19;20529;-74
2022/10/12 11:13:33;;;;;;;13.13;8.20;;;17.30;99.90;;;;;;7387446;19;20190;-72
2022/10/12 11:16:27;;;;;;;12.30;7.70;;;17.30;99.90;;;;;;7388809;19;20130;-75
2022/10/12 11:18:57;;;;;;;9.15;6.43;;;17.40;99.90;;;;;;7394042;19;20515;-75
2022/10/12 11:21:35;;;;;;;10.45;7.13;;;17.50;99.90;;;;;;7396625;19;20138;-75
2022/10/12 11:24:28;;;;;;;12.88;7.05;;;17.50;99.90;;;;;;7394720;19;20146;-74
2022/10/12 11:27:04;;;;;;;13.93;7.55;;;17.60;99.90;;;;;;7395742;19;20126;-74
2022/10/12 11:29:30;;;;;;;15.82;8.38;;;17.60;99.90;;;;;;7393077;19;20138;-76
2022/10/12 11:32:15;;;;;;;13.30;8.02;;;17.60;99.90;;;;;;7394535;19;20137;-76
2022/10/12 11:34:57;;;;;;;15.63;6.72;;;17.60;99.90;;;;;;7395758;19;20152;-75
2022/10/12 11:37:36;;;;;;;13.70;6.85;;;17.60;99.90;;;;;;7394862;19;20194;-75
2022/10/12 11:40:05;;;;;;;10.65;6.60;;;17.60;99.90;;;;;;7396169;19;20659;-74
2022/10/12 11:42:40;;;;;;;12.43;6.22;;;17.60;99.90;;;;;;7392916;19;20142;-75
2022/10/12 11:45:19;;;;;;;12.25;6.95;;;17.60;99.90;;;;;;7391554;19;20146;-73
2022/10/12 11:47:49;;;;;;;10.98;6.45;;;17.50;99.90;;;;;;7394002;19;20130;-74
2022/10/12 11:50:27;;;;;;;9.75;6.13;;;17.60;99.90;;;;;;7392374;19;20167;-74
2022/10/12 11:52:55;;;;;;;11.68;6.10;;;17.50;99.90;;;;;;7391965;19;20150;-75
2022/10/12 11:55:38;;;;;;;6.53;5.50;;;17.40;99.90;;;;;;7392689;19;20134;-74
2022/10/12 11:58:11;;;;;;;10.68;6.78;;;17.40;99.90;;;;;;7391826;19;20134;-74
2022/10/12 12:00:55;;;;;;;9.98;5.95;;;17.50;99.90;;;;;;7389326;19;20160;-76
2022/10/12 12:03:40;;;;;;;10.75;7.25;;;17.60;99.90;;;;;;7386244;19;20181;-77
2022/10/12 12:06:28;;;;;;;10.75;7.10;;;17.60;99.90;;;;;;7391752;19;20162;-73
2022/10/12 12:08:57;;;;;;;15.80;7.55;;;17.60;99.90;;;;;;7389673;19;20608;-75
2022/10/12 12:11:31;;;;;;;10.93;6.15;;;17.60;99.90;;;;;;7391323;19;20185;-73
2022/10/12 12:14:23;;;;;;;12.05;6.75;;;17.60;99.90;;;;;;7391153;19;20566;-74
2022/10/12 12:17:08;;;;;;;10.20;6.00;;;17.70;99.90;;;;;;7390110;19;20628;-75
2022/10/12 12:19:38;;;;;;;7.22;5.78;;;17.80;99.90;;;;;;7392836;19;20592;-74
2022/10/12 12:22:22;;;;;;;9.20;6.10;;;17.70;99.90;;;;;;7387047;19;20161;-75
2022/10/12 12:24:58;;;;;;;11.60;7.25;;;17.60;99.90;;;;;;7389682;19;20138;-77
2022/10/12 12:27:38;;;;;;;10.02;5.88;;;17.60;99.90;;;;;;7390192;19;20210;-76
2022/10/12 12:30:23;;;;;;;8.52;5.88;;;17.70;99.90;;;;;;7393954;19;20146;-73
2022/10/12 12:32:57;;;;;;;7.72;5.35;;;17.80;99.90;;;;;;7390784;19;20488;-75
2022/10/12 12:35:49;;;;;;;7.35;5.10;;;17.80;99.90;;;;;;7390232;19;20154;-75
2022/10/12 12:38:23;;;;;;;9.45;4.90;;;17.70;99.90;;;;;;7388824;19;20178;-76
2022/10/12 12:41:10;;;;;;;7.38;5.47;;;17.80;99.90;;;;;;7390586;19;20156;-74
2022/10/12 12:43:49;;;;;;;7.25;5.40;;;17.80;99.90;;;;;;7391003;19;20509;-76
2022/10/12 12:46:15;;;;;;;7.65;5.85;;;17.90;99.90;;;;;;7388915;19;20134;-74
2022/10/12 12:48:41;;;;;;;10.48;5.45;;;17.90;99.90;;;;;;7386692;19;20135;-75
2022/10/12 12:51:37;;;;;;;7.03;4.90;;;17.90;99.90;;;;;;7389003;19;20150;-75
2022/10/12 12:54:23;;;;;;;5.50;4.18;;;18.10;99.90;;;;;;7389340;19;20163;-74
2022/10/12 12:57:01;;;;;;;7.18;4.60;;;18.20;99.90;;;;;;7387647;19;20158;-75